sensor_id;sensor_type;location;lat;lon;timestamp;pressure;altitude;pressure_sealevel;temperature;humidity
3598;BME280;1813;52.016;8.714;2023-06-26T00:01:26;-16261.94;;;-139.71;68.41
3598;BME280;1813;52.016;8.714;2023-06-26T00:04:02;-16261.94;;;-139.71;67.85
3598;BME280;1813;52.016;8.714;2023-06-26T00:06:38;-16261.94;;;-139.71;67.79
3598;BME280;1813;52.016;8.714;2023-06-26T00:09:12;-16261.94;;;-139.71;67.45
3598;BME280;1813;52.016;8.714;2023-06-26T00:11:46;-16261.94;;;-139.71;67.28
3598;BME280;1813;52.016;8.714;2023-06-26T00:14:20;-16261.94;;;-139.71;67.22
3598;BME280;1813;52.016;8.714;2023-06-26T00:16:54;-16261.94;;;-139.71;68.24
3598;BME280;1813;52.016;8.714;2023-06-26T00:19:27;-16261.94;;;-139.71;68.38
3598;BME280;1813;52.016;8.714;2023-06-26T00:22:04;-16261.94;;;-139.71;68.76
3598;BME280;1813;52.016;8.714;2023-06-26T00:24:38;-16261.94;;;-139.71;68.96
3598;BME280;1813;52.016;8.714;2023-06-26T00:27:11;-16261.94;;;-139.71;68.86
3598;BME280;1813;52.016;8.714;2023-06-26T00:29:45;-16261.94;;;-139.71;68.00
3598;BME280;1813;52.016;8.714;2023-06-26T00:32:19;-16261.94;;;-139.71;68.88
3598;BME280;1813;52.016;8.714;2023-06-26T00:34:53;-16261.94;;;-139.71;69.02
3598;BME280;1813;52.016;8.714;2023-06-26T00:37:29;-16261.94;;;-139.71;68.98
3598;BME280;1813;52.016;8.714;2023-06-26T00:40:04;-16261.94;;;-139.71;68.69
3598;BME280;1813;52.016;8.714;2023-06-26T00:42:39;-16261.94;;;-139.71;68.07
3598;BME280;1813;52.016;8.714;2023-06-26T00:45:13;-16261.94;;;-139.71;68.92
3598;BME280;1813;52.016;8.714;2023-06-26T00:47:47;-16261.94;;;-139.71;68.26
3598;BME280;1813;52.016;8.714;2023-06-26T00:50:22;-16261.94;;;-139.71;68.81
3598;BME280;1813;52.016;8.714;2023-06-26T00:53:00;-16261.94;;;-139.71;68.52
3598;BME280;1813;52.016;8.714;2023-06-26T00:55:34;-16261.94;;;-139.71;68.25
3598;BME280;1813;52.016;8.714;2023-06-26T00:58:08;-16261.94;;;-139.71;68.97
3598;BME280;1813;52.016;8.714;2023-06-26T01:00:42;-16261.94;;;-139.71;69.28
3598;BME280;1813;52.016;8.714;2023-06-26T01:03:17;-16261.94;;;-139.71;69.60
3598;BME280;1813;52.016;8.714;2023-06-26T01:05:52;-16261.94;;;-139.71;69.03
3598;BME280;1813;52.016;8.714;2023-06-26T01:08:30;-16261.94;;;-139.71;68.85
3598;BME280;1813;52.016;8.714;2023-06-26T01:11:04;-16261.94;;;-139.71;68.59
3598;BME280;1813;52.016;8.714;2023-06-26T01:13:38;-16261.94;;;-139.71;68.63
3598;BME280;1813;52.016;8.714;2023-06-26T01:16:14;-16261.94;;;-139.71;68.56
3598;BME280;1813;52.016;8.714;2023-06-26T01:18:50;-16261.94;;;-139.71;68.07
3598;BME280;1813;52.016;8.714;2023-06-26T01:21:26;-16261.94;;;-139.71;68.64
3598;BME280;1813;52.016;8.714;2023-06-26T01:24:12;-16261.94;;;-139.71;68.54
3598;BME280;1813;52.016;8.714;2023-06-26T01:26:56;-16261.94;;;-139.71;68.58
3598;BME280;1813;52.016;8.714;2023-06-26T01:29:33;-16261.94;;;-139.71;68.93
3598;BME280;1813;52.016;8.714;2023-06-26T01:32:08;-16261.94;;;-139.71;69.01
3598;BME280;1813;52.016;8.714;2023-06-26T01:34:43;-16261.94;;;-139.71;69.30
3598;BME280;1813;52.016;8.714;2023-06-26T01:37:18;-16261.94;;;-139.71;69.53
3598;BME280;1813;52.016;8.714;2023-06-26T01:39:52;-16261.94;;;-139.71;69.21
3598;BME280;1813;52.016;8.714;2023-06-26T01:42:28;-16261.94;;;-139.71;68.80
3598;BME280;1813;52.016;8.714;2023-06-26T01:45:07;-16261.94;;;-139.71;68.51
3598;BME280;1813;52.016;8.714;2023-06-26T01:47:48;-16261.94;;;-139.71;68.61
3598;BME280;1813;52.016;8.714;2023-06-26T01:50:25;-16261.94;;;-139.71;68.76
3598;BME280;1813;52.016;8.714;2023-06-26T01:53:04;-16261.94;;;-139.71;68.93
3598;BME280;1813;52.016;8.714;2023-06-26T01:55:45;-16261.94;;;-139.71;68.52
3598;BME280;1813;52.016;8.714;2023-06-26T01:58:25;-16261.94;;;-139.71;68.43
3598;BME280;1813;52.016;8.714;2023-06-26T02:00:59;-16261.94;;;-139.71;68.24
3598;BME280;1813;52.016;8.714;2023-06-26T02:03:33;-16261.94;;;-139.71;68.10
3598;BME280;1813;52.016;8.714;2023-06-26T02:06:07;-16261.94;;;-139.71;67.75
3598;BME280;1813;52.016;8.714;2023-06-26T02:08:41;-16261.94;;;-139.71;67.46
3598;BME280;1813;52.016;8.714;2023-06-26T02:11:15;-16261.94;;;-139.71;67.62
3598;BME280;1813;52.016;8.714;2023-06-26T02:13:51;-16261.94;;;-139.71;67.55
3598;BME280;1813;52.016;8.714;2023-06-26T02:16:25;-16261.94;;;-139.71;67.44
3598;BME280;1813;52.016;8.714;2023-06-26T02:18:59;-16261.94;;;-139.71;67.29
3598;BME280;1813;52.016;8.714;2023-06-26T02:21:33;-16261.94;;;-139.71;67.64
3598;BME280;1813;52.016;8.714;2023-06-26T02:24:07;-16261.94;;;-139.71;67.35
3598;BME280;1813;52.016;8.714;2023-06-26T02:26:40;-16261.94;;;-139.71;68.18
3598;BME280;1813;52.016;8.714;2023-06-26T02:29:18;-16261.94;;;-139.71;67.61
3598;BME280;1813;52.016;8.714;2023-06-26T02:31:52;-16261.94;;;-139.71;67.73
3598;BME280;1813;52.016;8.714;2023-06-26T02:34:27;-16261.94;;;-139.71;67.59
3598;BME280;1813;52.016;8.714;2023-06-26T02:37:00;-16261.94;;;-139.71;67.76
3598;BME280;1813;52.016;8.714;2023-06-26T02:39:35;-16261.94;;;-139.71;67.82
3598;BME280;1813;52.016;8.714;2023-06-26T02:42:10;-16261.94;;;-139.71;67.34
3598;BME280;1813;52.016;8.714;2023-06-26T02:44:46;-16261.94;;;-139.71;67.60
3598;BME280;1813;52.016;8.714;2023-06-26T02:47:20;-16261.94;;;-139.71;68.18
3598;BME280;1813;52.016;8.714;2023-06-26T02:49:54;-16261.94;;;-139.71;67.99
3598;BME280;1813;52.016;8.714;2023-06-26T02:52:28;-16261.94;;;-139.71;68.09
3598;BME280;1813;52.016;8.714;2023-06-26T02:55:06;-16261.94;;;-139.71;68.59
3598;BME280;1813;52.016;8.714;2023-06-26T02:57:40;-16261.94;;;-139.71;68.66
3598;BME280;1813;52.016;8.714;2023-06-26T03:00:18;-16261.94;;;-139.71;68.73
3598;BME280;1813;52.016;8.714;2023-06-26T03:02:54;-16261.94;;;-139.71;68.58
3598;BME280;1813;52.016;8.714;2023-06-26T03:05:28;-16261.94;;;-139.71;68.31
3598;BME280;1813;52.016;8.714;2023-06-26T03:08:07;-16261.94;;;-139.71;68.13
3598;BME280;1813;52.016;8.714;2023-06-26T03:10:40;-16261.94;;;-139.71;68.24
3598;BME280;1813;52.016;8.714;2023-06-26T03:13:16;-16261.94;;;-139.71;68.22
3598;BME280;1813;52.016;8.714;2023-06-26T03:15:52;-16261.94;;;-139.71;68.31
3598;BME280;1813;52.016;8.714;2023-06-26T03:18:26;-16261.94;;;-139.71;68.54
3598;BME280;1813;52.016;8.714;2023-06-26T03:21:00;-16261.94;;;-139.71;68.66
3598;BME280;1813;52.016;8.714;2023-06-26T03:23:34;-16261.94;;;-139.71;68.07
3598;BME280;1813;52.016;8.714;2023-06-26T03:26:08;-16261.94;;;-139.71;68.10
3598;BME280;1813;52.016;8.714;2023-06-26T03:28:43;-16261.94;;;-139.71;68.51
3598;BME280;1813;52.016;8.714;2023-06-26T03:31:19;-16261.94;;;-139.71;68.42
3598;BME280;1813;52.016;8.714;2023-06-26T03:33:53;-16261.94;;;-139.71;68.81
3598;BME280;1813;52.016;8.714;2023-06-26T03:36:27;-16261.94;;;-139.71;68.50
3598;BME280;1813;52.016;8.714;2023-06-26T03:39:00;-16261.94;;;-139.71;68.56
3598;BME280;1813;52.016;8.714;2023-06-26T03:41:35;-16261.94;;;-139.71;68.14
3598;BME280;1813;52.016;8.714;2023-06-26T03:44:09;-16261.94;;;-139.71;68.27
3598;BME280;1813;52.016;8.714;2023-06-26T03:46:52;-16261.94;;;-139.71;68.17
3598;BME280;1813;52.016;8.714;2023-06-26T03:49:28;-16261.94;;;-139.71;68.31
3598;BME280;1813;52.016;8.714;2023-06-26T03:52:02;-16261.94;;;-139.71;68.48
3598;BME280;1813;52.016;8.714;2023-06-26T03:54:36;-16261.94;;;-139.71;68.16
3598;BME280;1813;52.016;8.714;2023-06-26T03:57:10;-16261.94;;;-139.71;68.01
3598;BME280;1813;52.016;8.714;2023-06-26T03:59:43;-16261.94;;;-139.71;68.57
3598;BME280;1813;52.016;8.714;2023-06-26T04:02:20;-16261.94;;;-139.71;68.60
3598;BME280;1813;52.016;8.714;2023-06-26T04:04:54;-16261.94;;;-139.71;68.56
3598;BME280;1813;52.016;8.714;2023-06-26T04:07:27;-16261.94;;;-139.71;68.56
3598;BME280;1813;52.016;8.714;2023-06-26T04:10:02;-16261.94;;;-139.71;69.07
3598;BME280;1813;52.016;8.714;2023-06-26T04:12:37;-16261.94;;;-139.71;68.94
3598;BME280;1813;52.016;8.714;2023-06-26T04:15:11;-16261.94;;;-139.71;69.17
3598;BME280;1813;52.016;8.714;2023-06-26T04:17:47;-16261.94;;;-139.71;69.09
3598;BME280;1813;52.016;8.714;2023-06-26T04:20:21;-16261.94;;;-139.71;69.56
3598;BME280;1813;52.016;8.714;2023-06-26T04:22:55;-16261.94;;;-139.71;69.74
3598;BME280;1813;52.016;8.714;2023-06-26T04:25:28;-16261.94;;;-139.71;70.28
3598;BME280;1813;52.016;8.714;2023-06-26T04:28:02;-16261.94;;;-139.71;69.94
3598;BME280;1813;52.016;8.714;2023-06-26T04:30:36;-16261.94;;;-139.71;70.55
3598;BME280;1813;52.016;8.714;2023-06-26T04:33:13;-16261.94;;;-139.71;70.70
3598;BME280;1813;52.016;8.714;2023-06-26T04:35:47;-16261.94;;;-139.71;70.12
3598;BME280;1813;52.016;8.714;2023-06-26T04:38:22;-16261.94;;;-139.71;69.52
3598;BME280;1813;52.016;8.714;2023-06-26T04:40:56;-16261.94;;;-139.71;69.29
3598;BME280;1813;52.016;8.714;2023-06-26T04:43:29;-16261.94;;;-139.71;69.32
3598;BME280;1813;52.016;8.714;2023-06-26T04:46:03;-16261.94;;;-139.71;69.24
3598;BME280;1813;52.016;8.714;2023-06-26T04:48:40;-16261.94;;;-139.71;69.19
3598;BME280;1813;52.016;8.714;2023-06-26T04:51:15;-16261.94;;;-139.71;69.19
3598;BME280;1813;52.016;8.714;2023-06-26T04:53:51;-16261.94;;;-139.71;69.05
3598;BME280;1813;52.016;8.714;2023-06-26T04:56:25;-16261.94;;;-139.71;68.64
3598;BME280;1813;52.016;8.714;2023-06-26T04:58:58;-16261.94;;;-139.71;68.66
3598;BME280;1813;52.016;8.714;2023-06-26T05:01:32;-16261.94;;;-139.71;69.30
3598;BME280;1813;52.016;8.714;2023-06-26T05:04:12;-16261.94;;;-139.71;69.51
3598;BME280;1813;52.016;8.714;2023-06-26T05:06:46;-16261.94;;;-139.71;69.34
3598;BME280;1813;52.016;8.714;2023-06-26T05:09:20;-16261.94;;;-139.71;70.10
3598;BME280;1813;52.016;8.714;2023-06-26T05:11:53;-16261.94;;;-139.71;70.01
3598;BME280;1813;52.016;8.714;2023-06-26T05:14:27;-16261.94;;;-139.71;71.04
3598;BME280;1813;52.016;8.714;2023-06-26T05:17:01;-16261.94;;;-139.71;70.94
3598;BME280;1813;52.016;8.714;2023-06-26T05:19:37;-16261.94;;;-139.71;71.22
3598;BME280;1813;52.016;8.714;2023-06-26T05:22:12;-16261.94;;;-139.71;71.57
3598;BME280;1813;52.016;8.714;2023-06-26T05:24:47;-16261.94;;;-139.71;71.81
3598;BME280;1813;52.016;8.714;2023-06-26T05:27:21;-16261.94;;;-139.71;71.69
3598;BME280;1813;52.016;8.714;2023-06-26T05:29:56;-16261.94;;;-139.71;71.96
3598;BME280;1813;52.016;8.714;2023-06-26T05:32:34;-16261.94;;;-139.71;72.65
3598;BME280;1813;52.016;8.714;2023-06-26T05:35:11;-16261.94;;;-139.71;72.95
3598;BME280;1813;52.016;8.714;2023-06-26T05:37:48;-16261.94;;;-139.71;72.57
3598;BME280;1813;52.016;8.714;2023-06-26T05:40:23;-16261.94;;;-139.71;72.65
3598;BME280;1813;52.016;8.714;2023-06-26T05:42:57;-16261.94;;;-139.71;72.94
3598;BME280;1813;52.016;8.714;2023-06-26T05:45:31;-16261.94;;;-139.71;71.51
3598;BME280;1813;52.016;8.714;2023-06-26T05:48:05;-16261.94;;;-139.71;67.44
3598;BME280;1813;52.016;8.714;2023-06-26T05:50:42;-16261.94;;;-139.71;64.74
3598;BME280;1813;52.016;8.714;2023-06-26T05:53:17;-16261.94;;;-139.71;61.86
3598;BME280;1813;52.016;8.714;2023-06-26T05:55:51;-16261.94;;;-139.71;60.04
3598;BME280;1813;52.016;8.714;2023-06-26T05:58:26;-16261.94;;;-139.71;58.64
3598;BME280;1813;52.016;8.714;2023-06-26T06:01:00;-16261.94;;;-139.71;55.04
3598;BME280;1813;52.016;8.714;2023-06-26T06:03:34;-16261.94;;;-139.71;55.17
3598;BME280;1813;52.016;8.714;2023-06-26T06:06:11;-16261.94;;;-139.71;53.60
3598;BME280;1813;52.016;8.714;2023-06-26T06:08:45;-16261.94;;;-139.71;52.85
3598;BME280;1813;52.016;8.714;2023-06-26T06:11:18;-16261.94;;;-139.71;51.93
3598;BME280;1813;52.016;8.714;2023-06-26T06:13:52;-16261.94;;;-139.71;51.06
3598;BME280;1813;52.016;8.714;2023-06-26T06:16:26;-16261.94;;;-139.71;51.33
3598;BME280;1813;52.016;8.714;2023-06-26T06:19:00;-16261.94;;;-139.71;51.42
3598;BME280;1813;52.016;8.714;2023-06-26T06:21:37;-16261.94;;;-139.71;51.26
3598;BME280;1813;52.016;8.714;2023-06-26T06:24:11;-16261.94;;;-139.71;51.50
3598;BME280;1813;52.016;8.714;2023-06-26T06:26:45;-16261.94;;;-139.71;51.25
3598;BME280;1813;52.016;8.714;2023-06-26T06:29:19;-16261.94;;;-139.71;51.47
3598;BME280;1813;52.016;8.714;2023-06-26T06:31:53;-16261.94;;;-139.71;50.77
3598;BME280;1813;52.016;8.714;2023-06-26T06:34:26;-16261.94;;;-139.71;51.70
3598;BME280;1813;52.016;8.714;2023-06-26T06:37:03;-16261.94;;;-139.71;50.61
3598;BME280;1813;52.016;8.714;2023-06-26T06:39:37;-16261.94;;;-139.71;51.01
3598;BME280;1813;52.016;8.714;2023-06-26T06:42:11;-16261.94;;;-139.71;50.10
3598;BME280;1813;52.016;8.714;2023-06-26T06:44:45;-16261.94;;;-139.71;51.45
3598;BME280;1813;52.016;8.714;2023-06-26T06:47:18;-16261.94;;;-139.71;52.73
3598;BME280;1813;52.016;8.714;2023-06-26T06:49:52;-16261.94;;;-139.71;51.63
3598;BME280;1813;52.016;8.714;2023-06-26T06:52:29;-16261.94;;;-139.71;50.50
3598;BME280;1813;52.016;8.714;2023-06-26T06:55:04;-16261.94;;;-139.71;49.82
3598;BME280;1813;52.016;8.714;2023-06-26T06:57:39;-16261.94;;;-139.71;49.46
3598;BME280;1813;52.016;8.714;2023-06-26T07:00:14;-16261.94;;;-139.71;50.35
3598;BME280;1813;52.016;8.714;2023-06-26T07:02:48;-16261.94;;;-139.71;48.96
3598;BME280;1813;52.016;8.714;2023-06-26T07:05:22;-16261.94;;;-139.71;48.93
3598;BME280;1813;52.016;8.714;2023-06-26T07:07:58;-16261.94;;;-139.71;48.81
3598;BME280;1813;52.016;8.714;2023-06-26T07:10:32;-16261.94;;;-139.71;48.39
3598;BME280;1813;52.016;8.714;2023-06-26T07:13:07;-16261.94;;;-139.71;48.99
3598;BME280;1813;52.016;8.714;2023-06-26T07:15:41;-16261.94;;;-139.71;48.53
3598;BME280;1813;52.016;8.714;2023-06-26T07:18:14;-16261.94;;;-139.71;48.60
3598;BME280;1813;52.016;8.714;2023-06-26T07:20:48;-16261.94;;;-139.71;48.55
3598;BME280;1813;52.016;8.714;2023-06-26T07:23:25;-16261.94;;;-139.71;48.60
3598;BME280;1813;52.016;8.714;2023-06-26T07:25:58;-16261.94;;;-139.71;48.25
3598;BME280;1813;52.016;8.714;2023-06-26T07:28:32;-16261.94;;;-139.71;48.04
3598;BME280;1813;52.016;8.714;2023-06-26T07:31:06;-16261.94;;;-139.71;48.78
3598;BME280;1813;52.016;8.714;2023-06-26T07:33:40;-16261.94;;;-139.71;48.28
3598;BME280;1813;52.016;8.714;2023-06-26T07:36:13;-16261.94;;;-139.71;48.07
3598;BME280;1813;52.016;8.714;2023-06-26T07:38:50;-16261.94;;;-139.71;49.00
3598;BME280;1813;52.016;8.714;2023-06-26T07:41:24;-16261.94;;;-139.71;48.06
3598;BME280;1813;52.016;8.714;2023-06-26T07:44:00;-16261.94;;;-139.71;48.33
3598;BME280;1813;52.016;8.714;2023-06-26T07:46:33;-16261.94;;;-139.71;47.84
3598;BME280;1813;52.016;8.714;2023-06-26T07:49:07;-16261.94;;;-139.71;48.55
3598;BME280;1813;52.016;8.714;2023-06-26T07:51:41;-16261.94;;;-139.71;47.56
3598;BME280;1813;52.016;8.714;2023-06-26T07:54:17;-16261.94;;;-139.71;47.43
3598;BME280;1813;52.016;8.714;2023-06-26T07:56:55;-16261.94;;;-139.71;46.80
3598;BME280;1813;52.016;8.714;2023-06-26T07:59:30;-16261.94;;;-139.71;47.24
3598;BME280;1813;52.016;8.714;2023-06-26T08:02:06;-16261.94;;;-139.71;46.91
3598;BME280;1813;52.016;8.714;2023-06-26T08:04:40;-16261.94;;;-139.71;47.73
3598;BME280;1813;52.016;8.714;2023-06-26T08:07:14;-16261.94;;;-139.71;47.92
3598;BME280;1813;52.016;8.714;2023-06-26T08:09:52;-16261.94;;;-139.71;47.75
3598;BME280;1813;52.016;8.714;2023-06-26T08:12:27;-16261.94;;;-139.71;48.63
3598;BME280;1813;52.016;8.714;2023-06-26T08:15:00;-16261.94;;;-139.71;48.69
3598;BME280;1813;52.016;8.714;2023-06-26T08:17:35;-16261.94;;;-139.71;49.05
3598;BME280;1813;52.016;8.714;2023-06-26T08:20:10;-16261.94;;;-139.71;49.55
3598;BME280;1813;52.016;8.714;2023-06-26T08:22:44;-16261.94;;;-139.71;49.91
3598;BME280;1813;52.016;8.714;2023-06-26T08:25:22;-16261.94;;;-139.71;50.01
3598;BME280;1813;52.016;8.714;2023-06-26T08:27:56;-16261.94;;;-139.71;50.42
3598;BME280;1813;52.016;8.714;2023-06-26T08:30:30;-16261.94;;;-139.71;49.60
3598;BME280;1813;52.016;8.714;2023-06-26T08:33:03;-16261.94;;;-139.71;50.85
3598;BME280;1813;52.016;8.714;2023-06-26T08:35:41;-16261.94;;;-139.71;51.35
3598;BME280;1813;52.016;8.714;2023-06-26T08:38:15;-16261.94;;;-139.71;52.07
3598;BME280;1813;52.016;8.714;2023-06-26T08:40:51;-16261.94;;;-139.71;52.23
3598;BME280;1813;52.016;8.714;2023-06-26T08:43:25;-16261.94;;;-139.71;53.29
3598;BME280;1813;52.016;8.714;2023-06-26T08:46:00;-16261.94;;;-139.71;55.05
3598;BME280;1813;52.016;8.714;2023-06-26T08:48:35;-16261.94;;;-139.71;55.42
3598;BME280;1813;52.016;8.714;2023-06-26T08:51:12;-16261.94;;;-139.71;57.61
3598;BME280;1813;52.016;8.714;2023-06-26T08:53:51;-16261.94;;;-139.71;60.32
3598;BME280;1813;52.016;8.714;2023-06-26T08:56:32;-16261.94;;;-139.71;62.06
3598;BME280;1813;52.016;8.714;2023-06-26T08:59:09;-16261.94;;;-139.71;63.43
3598;BME280;1813;52.016;8.714;2023-06-26T09:01:44;-16261.94;;;-139.71;62.70
3598;BME280;1813;52.016;8.714;2023-06-26T09:04:19;-16261.94;;;-139.71;62.95
3598;BME280;1813;52.016;8.714;2023-06-26T09:06:52;-16261.94;;;-139.71;65.45
3598;BME280;1813;52.016;8.714;2023-06-26T09:09:26;-16261.94;;;-139.71;63.75
3598;BME280;1813;52.016;8.714;2023-06-26T09:12:04;-16261.94;;;-139.71;64.05
3598;BME280;1813;52.016;8.714;2023-06-26T09:14:38;-16261.94;;;-139.71;63.71
3598;BME280;1813;52.016;8.714;2023-06-26T09:17:13;-16261.94;;;-139.71;60.81
3598;BME280;1813;52.016;8.714;2023-06-26T09:19:48;-16261.94;;;-139.71;60.87
3598;BME280;1813;52.016;8.714;2023-06-26T09:22:23;-16261.94;;;-139.71;60.89
3598;BME280;1813;52.016;8.714;2023-06-26T09:24:57;-16261.94;;;-139.71;62.25
3598;BME280;1813;52.016;8.714;2023-06-26T09:27:34;-16261.94;;;-139.71;59.68
3598;BME280;1813;52.016;8.714;2023-06-26T09:30:09;-16261.94;;;-139.71;58.89
3598;BME280;1813;52.016;8.714;2023-06-26T09:32:43;-16261.94;;;-139.71;57.01
3598;BME280;1813;52.016;8.714;2023-06-26T09:35:17;-16261.94;;;-139.71;57.63
3598;BME280;1813;52.016;8.714;2023-06-26T09:37:51;-16261.94;;;-139.71;56.88
3598;BME280;1813;52.016;8.714;2023-06-26T09:40:25;-16261.94;;;-139.71;55.80
3598;BME280;1813;52.016;8.714;2023-06-26T09:43:05;-16261.94;;;-139.71;55.38
3598;BME280;1813;52.016;8.714;2023-06-26T09:45:39;-16261.94;;;-139.71;56.03
3598;BME280;1813;52.016;8.714;2023-06-26T09:48:14;-16261.94;;;-139.71;56.34
3598;BME280;1813;52.016;8.714;2023-06-26T09:50:48;-16261.94;;;-139.71;54.64
3598;BME280;1813;52.016;8.714;2023-06-26T09:53:21;-16261.94;;;-139.71;52.69
3598;BME280;1813;52.016;8.714;2023-06-26T09:55:55;-16261.94;;;-139.71;51.41
3598;BME280;1813;52.016;8.714;2023-06-26T09:58:32;-16261.94;;;-139.71;50.23
3598;BME280;1813;52.016;8.714;2023-06-26T10:01:07;-16261.94;;;-139.71;50.17
3598;BME280;1813;52.016;8.714;2023-06-26T10:03:41;-16261.94;;;-139.71;49.28
3598;BME280;1813;52.016;8.714;2023-06-26T10:06:18;-16261.94;;;-139.71;48.67
3598;BME280;1813;52.016;8.714;2023-06-26T10:08:53;-16261.94;;;-139.71;48.95
3598;BME280;1813;52.016;8.714;2023-06-26T10:11:33;-16261.94;;;-139.71;49.86
3598;BME280;1813;52.016;8.714;2023-06-26T10:14:11;-16261.94;;;-139.71;50.27
3598;BME280;1813;52.016;8.714;2023-06-26T10:16:48;-16261.94;;;-139.71;51.02
3598;BME280;1813;52.016;8.714;2023-06-26T10:19:23;-16261.94;;;-139.71;53.94
3598;BME280;1813;52.016;8.714;2023-06-26T10:21:58;-16261.94;;;-139.71;53.80
3598;BME280;1813;52.016;8.714;2023-06-26T10:24:35;-16261.94;;;-139.71;52.61
3598;BME280;1813;52.016;8.714;2023-06-26T10:27:14;-16261.94;;;-139.71;51.30
3598;BME280;1813;52.016;8.714;2023-06-26T10:29:54;-16261.94;;;-139.71;49.43
3598;BME280;1813;52.016;8.714;2023-06-26T10:32:28;-16261.94;;;-139.71;49.51
3598;BME280;1813;52.016;8.714;2023-06-26T10:35:05;-16261.94;;;-139.71;50.19
3598;BME280;1813;52.016;8.714;2023-06-26T10:37:42;-16261.94;;;-139.71;52.36
3598;BME280;1813;52.016;8.714;2023-06-26T10:40:22;-16261.94;;;-139.71;53.19
3598;BME280;1813;52.016;8.714;2023-06-26T10:43:16;-16261.94;;;-139.71;51.56
3598;BME280;1813;52.016;8.714;2023-06-26T10:45:54;-16261.94;;;-139.71;49.81
3598;BME280;1813;52.016;8.714;2023-06-26T10:48:29;-16261.94;;;-139.71;50.45
3598;BME280;1813;52.016;8.714;2023-06-26T10:51:13;-16261.94;;;-139.71;48.68
3598;BME280;1813;52.016;8.714;2023-06-26T10:53:50;-16261.94;;;-139.71;46.53
3598;BME280;1813;52.016;8.714;2023-06-26T10:56:42;-16261.94;;;-139.71;45.88
3598;BME280;1813;52.016;8.714;2023-06-26T10:59:17;-16261.94;;;-139.71;46.10
3598;BME280;1813;52.016;8.714;2023-06-26T11:01:58;-16261.94;;;-139.71;47.17
3598;BME280;1813;52.016;8.714;2023-06-26T11:04:40;-16261.94;;;-139.71;48.64
3598;BME280;1813;52.016;8.714;2023-06-26T11:07:19;-16261.94;;;-139.71;48.87
3598;BME280;1813;52.016;8.714;2023-06-26T11:09:58;-16261.94;;;-139.71;48.66
3598;BME280;1813;52.016;8.714;2023-06-26T11:12:38;-16261.94;;;-139.71;46.57
3598;BME280;1813;52.016;8.714;2023-06-26T11:15:13;-16261.94;;;-139.71;47.30
3598;BME280;1813;52.016;8.714;2023-06-26T11:17:51;-16261.94;;;-139.71;45.31
3598;BME280;1813;52.016;8.714;2023-06-26T11:20:27;-16261.94;;;-139.71;44.23
3598;BME280;1813;52.016;8.714;2023-06-26T11:23:01;-16261.94;;;-139.71;45.02
3598;BME280;1813;52.016;8.714;2023-06-26T11:25:37;-16261.94;;;-139.71;45.55
3598;BME280;1813;52.016;8.714;2023-06-26T11:28:11;-16261.94;;;-139.71;43.77
3598;BME280;1813;52.016;8.714;2023-06-26T11:30:45;-16261.94;;;-139.71;44.31
3598;BME280;1813;52.016;8.714;2023-06-26T11:33:26;-16261.94;;;-139.71;43.26
3598;BME280;1813;52.016;8.714;2023-06-26T11:36:08;-16261.94;;;-139.71;43.20
3598;BME280;1813;52.016;8.714;2023-06-26T11:38:42;-16261.94;;;-139.71;41.12
3598;BME280;1813;52.016;8.714;2023-06-26T11:41:17;-16261.94;;;-139.71;41.30
3598;BME280;1813;52.016;8.714;2023-06-26T11:43:51;-16261.94;;;-139.71;41.67
3598;BME280;1813;52.016;8.714;2023-06-26T11:46:25;-16261.94;;;-139.71;40.56
3598;BME280;1813;52.016;8.714;2023-06-26T11:49:02;-16261.94;;;-139.71;39.82
3598;BME280;1813;52.016;8.714;2023-06-26T11:51:37;-16261.94;;;-139.71;38.66
3598;BME280;1813;52.016;8.714;2023-06-26T11:54:11;-16261.94;;;-139.71;38.69
3598;BME280;1813;52.016;8.714;2023-06-26T11:56:52;-16261.94;;;-139.71;37.74
3598;BME280;1813;52.016;8.714;2023-06-26T11:59:34;-16261.94;;;-139.71;37.35
3598;BME280;1813;52.016;8.714;2023-06-26T12:02:13;-16261.94;;;-139.71;35.32
3598;BME280;1813;52.016;8.714;2023-06-26T12:04:49;-16261.94;;;-139.71;35.54
3598;BME280;1813;52.016;8.714;2023-06-26T12:07:24;-16261.94;;;-139.71;35.38
3598;BME280;1813;52.016;8.714;2023-06-26T12:09:58;-16261.94;;;-139.71;36.55
3598;BME280;1813;52.016;8.714;2023-06-26T12:12:32;-16261.94;;;-139.71;36.93
3598;BME280;1813;52.016;8.714;2023-06-26T12:15:08;-16261.94;;;-139.71;37.07
3598;BME280;1813;52.016;8.714;2023-06-26T12:17:44;-16261.94;;;-139.71;36.41
3598;BME280;1813;52.016;8.714;2023-06-26T12:20:21;-16261.94;;;-139.71;35.59
3598;BME280;1813;52.016;8.714;2023-06-26T12:22:56;-16261.94;;;-139.71;36.49
3598;BME280;1813;52.016;8.714;2023-06-26T12:29:13;-16261.94;;;-139.71;36.08
3598;BME280;1813;52.016;8.714;2023-06-26T12:31:52;-16261.94;;;-139.71;34.79
3598;BME280;1813;52.016;8.714;2023-06-26T12:34:27;-16261.94;;;-139.71;35.29
3598;BME280;1813;52.016;8.714;2023-06-26T12:37:06;-16261.94;;;-139.71;35.02
3598;BME280;1813;52.016;8.714;2023-06-26T12:39:47;-16261.94;;;-139.71;35.14
3598;BME280;1813;52.016;8.714;2023-06-26T12:42:22;-16261.94;;;-139.71;35.74
3598;BME280;1813;52.016;8.714;2023-06-26T12:44:56;-16261.94;;;-139.71;35.27
3598;BME280;1813;52.016;8.714;2023-06-26T12:47:30;-16261.94;;;-139.71;35.80
3598;BME280;1813;52.016;8.714;2023-06-26T12:50:05;-16261.94;;;-139.71;35.59
3598;BME280;1813;52.016;8.714;2023-06-26T12:52:42;-16261.94;;;-139.71;35.36
3598;BME280;1813;52.016;8.714;2023-06-26T12:55:16;-16261.94;;;-139.71;34.55
3598;BME280;1813;52.016;8.714;2023-06-26T12:57:50;-16261.94;;;-139.71;34.55
3598;BME280;1813;52.016;8.714;2023-06-26T13:00:23;-16261.94;;;-139.71;34.62
3598;BME280;1813;52.016;8.714;2023-06-26T13:02:57;-16261.94;;;-139.71;34.59
3598;BME280;1813;52.016;8.714;2023-06-26T13:05:32;-16261.94;;;-139.71;35.18
3598;BME280;1813;52.016;8.714;2023-06-26T13:08:08;-16261.94;;;-139.71;34.78
3598;BME280;1813;52.016;8.714;2023-06-26T13:10:42;-16261.94;;;-139.71;36.63
3598;BME280;1813;52.016;8.714;2023-06-26T13:13:16;-16261.94;;;-139.71;36.80
3598;BME280;1813;52.016;8.714;2023-06-26T13:15:50;-16261.94;;;-139.71;36.88
3598;BME280;1813;52.016;8.714;2023-06-26T13:18:23;-16261.94;;;-139.71;35.81
3598;BME280;1813;52.016;8.714;2023-06-26T13:20:57;-16261.94;;;-139.71;35.59
3598;BME280;1813;52.016;8.714;2023-06-26T13:23:34;-16261.94;;;-139.71;34.15
3598;BME280;1813;52.016;8.714;2023-06-26T13:26:08;-16261.94;;;-139.71;34.11
3598;BME280;1813;52.016;8.714;2023-06-26T13:28:42;-16261.94;;;-139.71;35.13
3598;BME280;1813;52.016;8.714;2023-06-26T13:31:15;-16261.94;;;-139.71;35.02
3598;BME280;1813;52.016;8.714;2023-06-26T13:33:49;-16261.94;;;-139.71;35.25
3598;BME280;1813;52.016;8.714;2023-06-26T13:36:23;-16261.94;;;-139.71;34.93